createdAt,value
2022-08-26T00:01:54.327Z,73.62
2022-08-26T00:04:23.714Z,73.67
2022-08-26T00:06:51.326Z,74.19
2022-08-26T00:09:18.181Z,74.60
2022-08-26T00:11:46.082Z,74.40
2022-08-26T00:14:16.307Z,74.69
2022-08-26T00:16:47.545Z,75.28
2022-08-26T00:19:16.944Z,74.88
2022-08-26T00:21:43.986Z,76.03
2022-08-26T00:24:10.910Z,76.34
2022-08-26T00:26:39.510Z,76.49
2022-08-26T00:29:08.589Z,75.97
2022-08-26T00:31:36.683Z,76.20
2022-08-26T00:34:04.070Z,76.71
2022-08-26T00:36:31.929Z,77.17
2022-08-26T00:38:59.210Z,77.64
2022-08-26T00:41:26.171Z,78.02
2022-08-26T00:43:53.281Z,77.76
2022-08-26T00:46:25.357Z,78.23
2022-08-26T00:48:58.236Z,78.27
2022-08-26T00:51:29.713Z,78.84
2022-08-26T00:54:10.747Z,79.06
2022-08-26T00:56:55.285Z,79.33
2022-08-26T00:59:23.583Z,79.15
2022-08-26T01:01:51.569Z,79.38
2022-08-26T01:04:21.437Z,78.70
2022-08-26T01:06:50.139Z,78.65
2022-08-26T01:09:19.384Z,78.43
2022-08-26T01:11:48.982Z,79.60
2022-08-26T01:14:17.494Z,79.96
2022-08-26T01:16:48.203Z,79.97
2022-08-26T01:19:51.026Z,79.86
2022-08-26T01:22:26.607Z,80.24
2022-08-26T01:24:55.608Z,80.35
2022-08-26T01:27:23.426Z,80.31
2022-08-26T01:29:51.698Z,80.20
2022-08-26T01:32:23.340Z,80.24
2022-08-26T01:34:50.943Z,80.13
2022-08-26T01:37:23.206Z,80.08
2022-08-26T01:39:53.322Z,80.52
2022-08-26T01:42:23.850Z,80.46
2022-08-26T01:45:18.394Z,80.38
2022-08-26T01:47:48.740Z,80.67
2022-08-26T01:50:28.042Z,80.54
2022-08-26T01:52:59.155Z,80.27
2022-08-26T01:55:33.450Z,80.12
2022-08-26T01:58:06.267Z,80.33
2022-08-26T02:00:35.132Z,80.23
2022-08-26T02:03:21.629Z,80.20
2022-08-26T02:05:54.226Z,80.25
2022-08-26T02:08:38.096Z,80.06
2022-08-26T02:11:05.470Z,79.99
2022-08-26T02:13:38.012Z,80.04
2022-08-26T02:16:05.660Z,80.33
2022-08-26T02:18:38.647Z,80.30
2022-08-26T02:21:07.452Z,80.24
2022-08-26T02:23:35.816Z,80.42
2022-08-26T02:26:17.826Z,80.01
2022-08-26T02:28:58.554Z,79.93
2022-08-26T02:31:25.669Z,80.04
2022-08-26T02:33:52.535Z,79.87
2022-08-26T02:36:21.816Z,80.29
2022-08-26T02:38:48.731Z,80.27
2022-08-26T02:41:15.615Z,80.21
2022-08-26T02:43:44.944Z,79.89
2022-08-26T02:46:11.749Z,80.08
2022-08-26T02:48:48.203Z,79.87
2022-08-26T02:51:15.620Z,79.65
2022-08-26T02:53:42.579Z,79.54
2022-08-26T02:56:09.893Z,79.20
2022-08-26T02:58:37.060Z,79.34
2022-08-26T03:01:04.760Z,79.24
2022-08-26T03:03:32.710Z,79.25
2022-08-26T03:05:59.484Z,78.95
2022-08-26T03:08:26.270Z,78.73
2022-08-26T03:10:54.100Z,78.59
2022-08-26T03:13:20.936Z,78.44
2022-08-26T03:15:47.987Z,78.31
2022-08-26T03:18:15.250Z,78.38
2022-08-26T03:20:42.034Z,78.18
2022-08-26T03:23:10.968Z,77.69
2022-08-26T03:25:37.839Z,77.34
2022-08-26T03:28:05.018Z,76.67
2022-08-26T03:30:45.385Z,76.18
2022-08-26T03:33:14.023Z,75.09
2022-08-26T03:35:43.580Z,74.46
2022-08-26T03:38:11.139Z,73.81
2022-08-26T03:40:39.071Z,72.49
2022-08-26T03:43:09.509Z,70.63
2022-08-26T03:45:37.720Z,69.64
2022-08-26T03:48:05.329Z,67.67
2022-08-26T03:50:34.218Z,66.56
2022-08-26T03:53:04.070Z,65.28
2022-08-26T03:55:32.685Z,64.21
2022-08-26T03:58:00.788Z,63.57
2022-08-26T04:00:28.437Z,62.52
2022-08-26T04:02:55.534Z,61.52
2022-08-26T04:05:23.194Z,60.82
2022-08-26T04:07:51.179Z,59.81
2022-08-26T04:10:29.011Z,58.54
2022-08-26T04:12:58.820Z,58.18
2022-08-26T04:15:27.048Z,56.86
2022-08-26T04:17:54.055Z,56.45
2022-08-26T04:20:22.859Z,55.84
2022-08-26T04:22:50.837Z,54.67
2022-08-26T04:25:18.647Z,53.25
2022-08-26T04:27:48.286Z,52.42
2022-08-26T04:30:16.714Z,51.56
2022-08-26T04:32:43.962Z,50.71
2022-08-26T04:35:10.902Z,49.68
2022-08-26T04:37:37.783Z,49.10
2022-08-26T04:40:05.941Z,48.68
2022-08-26T04:42:33.486Z,47.99
2022-08-26T04:45:01.163Z,47.54
2022-08-26T04:47:32.102Z,47.63
2022-08-26T04:50:00.019Z,47.02
2022-08-26T04:52:26.813Z,45.82
2022-08-26T04:54:55.031Z,45.46
2022-08-26T04:57:23.328Z,45.44
2022-08-26T04:59:50.214Z,44.19
2022-08-26T05:02:17.145Z,44.72
2022-08-26T05:04:44.044Z,43.89
2022-08-26T05:07:11.485Z,43.16
2022-08-26T05:09:40.652Z,42.14
2022-08-26T05:12:08.140Z,42.73
2022-08-26T05:14:36.618Z,42.28
2022-08-26T05:17:04.127Z,41.76
2022-08-26T05:19:31.902Z,40.91
2022-08-26T05:22:00.050Z,40.11
2022-08-26T05:24:27.434Z,40.67
2022-08-26T05:26:54.582Z,40.11
2022-08-26T05:29:23.850Z,40.33
2022-08-26T05:31:52.325Z,39.34
2022-08-26T05:34:20.830Z,38.55
2022-08-26T05:36:48.288Z,38.50
2022-08-26T05:39:15.400Z,37.76
2022-08-26T05:41:44.873Z,36.98
2022-08-26T05:44:14.775Z,36.95
2022-08-26T05:46:43.953Z,37.37
2022-08-26T05:49:12.995Z,37.15
2022-08-26T05:51:42.281Z,35.93
2022-08-26T05:54:10.455Z,35.68
2022-08-26T05:56:38.625Z,36.09
2022-08-26T05:59:06.655Z,35.87
2022-08-26T06:01:42.522Z,36.70
2022-08-26T06:04:10.210Z,37.78
2022-08-26T06:06:41.599Z,39.48
2022-08-26T06:09:11.208Z,39.26
2022-08-26T06:11:40.323Z,39.26
2022-08-26T06:14:08.445Z,37.64
2022-08-26T06:16:41.705Z,37.56
2022-08-26T06:19:10.502Z,36.62
2022-08-26T06:21:40.762Z,35.77
2022-08-26T06:24:29.487Z,34.32
2022-08-26T06:27:01.588Z,34.88
2022-08-26T06:29:30.935Z,33.92
2022-08-26T06:31:58.672Z,33.02
2022-08-26T06:34:30.465Z,31.88
2022-08-26T06:36:59.854Z,30.21
2022-08-26T06:39:30.742Z,29.52
2022-08-26T06:41:59.088Z,29.02
2022-08-26T06:44:28.084Z,28.03
2022-08-26T06:46:56.582Z,28.01
2022-08-26T06:49:26.735Z,27.67
2022-08-26T06:52:00.527Z,26.85
2022-08-26T06:54:32.235Z,26.19
2022-08-26T06:57:01.855Z,26.06
2022-08-26T06:59:31.813Z,26.58
2022-08-26T07:02:00.780Z,25.96
2022-08-26T07:04:30.697Z,25.80
2022-08-26T07:06:59.427Z,26.50
2022-08-26T07:09:31.214Z,26.38
2022-08-26T07:12:00.788Z,26.13
2022-08-26T07:14:29.430Z,25.90
2022-08-26T07:16:56.789Z,25.42
2022-08-26T07:19:31.067Z,24.92
2022-08-26T07:22:02.284Z,23.86
2022-08-26T07:24:31.191Z,23.02
2022-08-26T07:27:01.327Z,22.92
2022-08-26T07:29:29.272Z,22.73
2022-08-26T07:31:56.365Z,22.18
2022-08-26T07:34:24.166Z,21.29
2022-08-26T07:36:51.674Z,21.11
2022-08-26T07:39:19.403Z,21.56
2022-08-26T07:41:47.396Z,21.15
2022-08-26T07:44:15.572Z,20.30
2022-08-26T07:46:44.254Z,20.68
2022-08-26T07:49:20.176Z,19.61
2022-08-26T07:51:47.201Z,19.16
2022-08-26T07:54:14.175Z,19.24
2022-08-26T07:56:41.006Z,18.73
2022-08-26T07:59:13.420Z,18.83
2022-08-26T08:01:41.412Z,18.36
2022-08-26T08:04:17.368Z,17.60
2022-08-26T08:06:46.360Z,17.37
2022-08-26T08:09:16.123Z,16.46
2022-08-26T08:11:45.018Z,16.11
2022-08-26T08:14:12.679Z,16.46
2022-08-26T08:16:45.831Z,16.22
2022-08-26T08:19:14.484Z,16.50
2022-08-26T08:21:41.691Z,16.51
2022-08-26T08:24:08.759Z,16.92
2022-08-26T08:26:35.718Z,16.60
2022-08-26T08:29:03.672Z,16.52
2022-08-26T08:34:21.436Z,14.84
2022-08-26T08:36:49.614Z,15.03
2022-08-26T08:39:17.673Z,14.58
2022-08-26T08:41:59.837Z,14.83
2022-08-26T08:47:00.398Z,14.33
2022-08-26T08:49:29.245Z,14.80
2022-08-26T08:52:10.809Z,15.80
2022-08-26T08:54:38.701Z,15.15
2022-08-26T08:57:26.621Z,14.89
2022-08-26T09:00:09.014Z,14.86
2022-08-26T09:02:45.529Z,14.97
2022-08-26T09:05:40.217Z,14.50
2022-08-26T09:08:21.067Z,14.72
2022-08-26T09:10:54.466Z,14.60
2022-08-26T09:13:25.117Z,14.94
2022-08-26T09:16:15.889Z,14.14
2022-08-26T09:18:54.903Z,13.47
2022-08-26T09:21:25.277Z,13.99
2022-08-26T09:23:56.842Z,13.65
2022-08-26T09:26:41.278Z,13.66
2022-08-26T09:32:13.058Z,13.89
2022-08-26T09:34:55.978Z,13.61
2022-08-26T09:37:36.788Z,13.20
2022-08-26T09:40:12.774Z,12.88
2022-08-26T09:42:39.736Z,12.51
2022-08-26T09:45:10.556Z,12.05
2022-08-26T09:47:52.929Z,11.65
2022-08-26T09:50:29.163Z,11.84
2022-08-26T09:53:30.419Z,11.39
2022-08-26T09:56:12.909Z,12.03
2022-08-26T09:58:43.064Z,11.60
2022-08-26T10:01:30.109Z,11.37
2022-08-26T10:04:06.845Z,10.74
2022-08-26T10:06:39.419Z,10.89
2022-08-26T10:09:10.992Z,10.83
2022-08-26T10:11:49.114Z,11.16
2022-08-26T10:14:31.035Z,11.14
2022-08-26T10:17:11.276Z,11.57
2022-08-26T10:19:57.046Z,10.56
2022-08-26T10:22:24.479Z,10.90
2022-08-26T10:24:58.064Z,11.24
2022-08-26T10:27:24.875Z,10.87
2022-08-26T10:29:57.270Z,11.10
2022-08-26T10:32:35.226Z,10.99
2022-08-26T10:35:11.908Z,10.93
2022-08-26T10:37:45.031Z,11.20
2022-08-26T10:40:23.799Z,10.69
2022-08-26T10:43:11.558Z,9.98
2022-08-26T10:45:51.104Z,10.35
2022-08-26T10:48:44.008Z,10.43
2022-08-26T10:51:14.677Z,10.08
2022-08-26T10:53:51.475Z,9.17
2022-08-26T10:56:52.832Z,9.05
2022-08-26T10:59:25.703Z,9.30
2022-08-26T11:02:24.661Z,8.63
2022-08-26T11:04:55.108Z,8.92
2022-08-26T11:07:42.009Z,8.68
2022-08-26T11:10:20.868Z,9.15
2022-08-26T11:12:55.249Z,9.37
2022-08-26T11:15:29.503Z,9.85
2022-08-26T11:18:11.544Z,9.52
2022-08-26T11:20:45.894Z,9.75
2022-08-26T11:23:13.026Z,9.23
2022-08-26T11:26:04.350Z,8.84
2022-08-26T11:28:36.996Z,9.65
2022-08-26T11:31:08.712Z,9.34
2022-08-26T11:33:52.416Z,9.73
2022-08-26T11:36:45.621Z,10.41
2022-08-26T11:39:18.592Z,10.37
2022-08-26T11:41:48.468Z,10.33
2022-08-26T11:44:23.278Z,9.98
2022-08-26T11:46:59.689Z,10.30
2022-08-26T11:49:33.432Z,9.68
2022-08-26T11:52:22.228Z,9.88
2022-08-26T11:55:15.206Z,10.64
2022-08-26T11:57:49.864Z,11.09
2022-08-26T12:00:23.834Z,10.17
2022-08-26T12:02:52.530Z,9.66
2022-08-26T12:05:38.299Z,10.20
2022-08-26T12:08:11.572Z,10.48
2022-08-26T12:10:39.067Z,10.58
2022-08-26T12:13:17.924Z,10.13
2022-08-26T12:15:53.417Z,9.32
2022-08-26T12:18:30.120Z,9.66
2022-08-26T12:20:59.968Z,10.13
2022-08-26T12:23:32.591Z,11.33
2022-08-26T12:26:07.364Z,11.07
2022-08-26T12:29:12.658Z,11.36
2022-08-26T12:32:07.543Z,11.69
2022-08-26T12:34:34.700Z,11.54
2022-08-26T12:37:03.220Z,11.47
2022-08-26T12:39:36.911Z,11.42
2022-08-26T12:42:07.948Z,11.31
2022-08-26T12:44:37.960Z,11.58
2022-08-26T12:47:23.415Z,10.39
2022-08-26T12:50:18.326Z,10.70
2022-08-26T12:53:09.744Z,10.56
2022-08-26T12:55:43.860Z,10.70
2022-08-26T12:58:16.933Z,11.20
2022-08-26T13:01:09.015Z,10.23
2022-08-26T13:03:38.865Z,10.77
2022-08-26T13:06:31.537Z,11.19
2022-08-26T13:08:58.534Z,11.02
2022-08-26T13:11:28.074Z,11.08
2022-08-26T13:14:07.001Z,10.77
2022-08-26T13:16:35.235Z,11.04
2022-08-26T13:19:10.395Z,10.80
2022-08-26T13:21:44.799Z,11.21
2022-08-26T13:24:14.945Z,11.20
2022-08-26T13:26:46.503Z,11.63
2022-08-26T13:29:13.842Z,11.12
2022-08-26T13:31:44.133Z,11.98
2022-08-26T13:34:15.558Z,12.11
2022-08-26T13:36:44.976Z,12.29
2022-08-26T13:39:12.441Z,12.45
2022-08-26T13:41:39.658Z,11.78
2022-08-26T13:44:07.108Z,12.14
2022-08-26T13:46:34.429Z,12.15
2022-08-26T13:49:01.459Z,11.89
2022-08-26T13:51:29.059Z,11.60
2022-08-26T13:53:57.657Z,11.68
2022-08-26T13:56:29.504Z,12.01
2022-08-26T13:58:57.674Z,11.81
2022-08-26T14:01:25.678Z,12.20
2022-08-26T14:03:53.146Z,12.28
2022-08-26T14:06:20.962Z,12.35
2022-08-26T14:08:48.716Z,12.69
2022-08-26T14:11:15.979Z,12.82
2022-08-26T14:13:43.264Z,12.65
2022-08-26T14:16:22.124Z,13.03
2022-08-26T14:18:51.012Z,13.52
2022-08-26T14:21:18.359Z,13.71
2022-08-26T14:23:45.396Z,13.64
2022-08-26T14:26:19.011Z,13.82
2022-08-26T14:28:59.867Z,13.91
2022-08-26T14:31:29.590Z,14.07
2022-08-26T14:34:03.165Z,14.91
2022-08-26T14:36:33.008Z,14.92
2022-08-26T14:39:03.970Z,15.06
2022-08-26T14:41:32.239Z,15.04
2022-08-26T14:44:03.334Z,15.34
2022-08-26T14:46:34.206Z,15.96
2022-08-26T14:49:05.251Z,16.92
2022-08-26T14:51:34.525Z,17.24
2022-08-26T14:54:20.028Z,17.41
2022-08-26T14:57:00.500Z,18.22
2022-08-26T14:59:34.014Z,18.36
2022-08-26T15:02:01.272Z,18.64
2022-08-26T15:04:28.626Z,18.25
2022-08-26T15:06:57.715Z,18.83
2022-08-26T15:09:25.603Z,19.05
2022-08-26T15:11:53.258Z,19.03
2022-08-26T15:14:22.181Z,18.91
2022-08-26T15:16:51.103Z,19.30
2022-08-26T15:19:19.057Z,20.35
2022-08-26T15:21:49.780Z,20.75
2022-08-26T15:24:20.287Z,20.62
2022-08-26T15:26:48.704Z,20.73
2022-08-26T15:29:15.946Z,21.40
2022-08-26T15:31:43.134Z,21.60
2022-08-26T15:34:16.490Z,21.66
2022-08-26T15:36:46.393Z,21.01
2022-08-26T15:39:14.747Z,21.39
2022-08-26T15:41:41.722Z,21.65
2022-08-26T15:44:10.248Z,21.75
2022-08-26T15:46:39.231Z,21.73
2022-08-26T15:49:07.208Z,22.27
2022-08-26T15:51:45.538Z,22.95
2022-08-26T15:54:14.470Z,23.21
2022-08-26T15:56:41.299Z,23.37
2022-08-26T15:59:11.720Z,23.44
2022-08-26T16:01:39.937Z,23.81
2022-08-26T16:04:07.372Z,24.24
2022-08-26T16:06:36.792Z,24.28
2022-08-26T16:09:04.707Z,24.56
2022-08-26T16:11:31.606Z,24.74
2022-08-26T16:13:58.579Z,24.67
2022-08-26T16:16:25.906Z,24.67
2022-08-26T16:18:52.919Z,25.07
2022-08-26T16:21:23.188Z,25.02
2022-08-26T16:23:50.128Z,25.37
2022-08-26T16:26:24.882Z,25.60
2022-08-26T16:28:52.747Z,25.62
2022-08-26T16:31:21.361Z,26.39
2022-08-26T16:33:48.238Z,26.56
2022-08-26T16:36:15.206Z,27.11
2022-08-26T16:38:47.691Z,27.41
2022-08-26T16:41:14.614Z,27.58
2022-08-26T16:43:41.440Z,28.04
2022-08-26T16:46:08.408Z,27.91
2022-08-26T16:48:35.345Z,28.21
2022-08-26T16:51:02.106Z,28.95
2022-08-26T16:53:29.160Z,28.85
2022-08-26T16:55:55.958Z,29.16
2022-08-26T16:58:22.939Z,29.35
2022-08-26T17:00:49.944Z,29.74
2022-08-26T17:03:17.485Z,30.11
2022-08-26T17:05:44.675Z,30.24
2022-08-26T17:08:14.533Z,30.43
2022-08-26T17:10:51.803Z,30.81
2022-08-26T17:13:25.977Z,31.22
2022-08-26T17:16:05.047Z,31.52
2022-08-26T17:18:33.528Z,31.59
2022-08-26T17:21:06.802Z,31.85
2022-08-26T17:23:34.486Z,32.43
2022-08-26T17:26:01.313Z,33.03
2022-08-26T17:28:28.275Z,33.33
2022-08-26T17:30:59.000Z,33.42
2022-08-26T17:33:26.332Z,33.70
2022-08-26T17:35:53.822Z,34.23
2022-08-26T17:38:21.476Z,35.13
2022-08-26T17:40:50.490Z,35.31
2022-08-26T17:43:18.060Z,35.38
2022-08-26T17:45:45.124Z,35.42
2022-08-26T17:48:12.746Z,35.65
2022-08-26T17:50:41.410Z,36.15
2022-08-26T17:53:08.795Z,36.11
2022-08-26T17:55:41.853Z,36.24
2022-08-26T17:58:12.033Z,36.22
2022-08-26T18:00:50.818Z,36.66
2022-08-26T18:03:19.142Z,36.54
2022-08-26T18:05:51.547Z,36.97
2022-08-26T18:08:19.497Z,36.82
2022-08-26T18:10:46.880Z,37.00
2022-08-26T18:13:14.942Z,36.89
2022-08-26T18:15:43.804Z,37.19
2022-08-26T18:18:12.009Z,37.27
2022-08-26T18:20:40.394Z,37.21
2022-08-26T18:23:07.465Z,37.03
2022-08-26T18:25:34.601Z,37.34
2022-08-26T18:28:01.496Z,37.34
2022-08-26T18:30:28.239Z,37.19
2022-08-26T18:32:55.029Z,37.32
2022-08-26T18:35:21.959Z,37.45
2022-08-26T18:37:48.826Z,37.84
2022-08-26T18:40:16.439Z,37.70
2022-08-26T18:42:44.026Z,37.55
2022-08-26T18:45:16.279Z,37.66
2022-08-26T18:47:43.977Z,38.01
2022-08-26T18:50:11.278Z,38.09
2022-08-26T18:52:38.153Z,38.30
2022-08-26T18:55:05.437Z,38.41
2022-08-26T18:57:32.305Z,38.66
2022-08-26T18:59:59.257Z,38.64
2022-08-26T19:02:26.245Z,38.42
2022-08-26T19:04:53.100Z,38.58
2022-08-26T19:07:20.655Z,40.02
2022-08-26T19:09:47.620Z,41.66
2022-08-26T19:12:21.330Z,43.52
2022-08-26T19:14:48.055Z,44.31
2022-08-26T19:17:15.215Z,44.98
2022-08-26T19:19:42.026Z,46.15
2022-08-26T19:22:08.870Z,47.12
2022-08-26T19:24:35.709Z,48.07
2022-08-26T19:27:03.608Z,48.53
2022-08-26T19:29:33.890Z,48.04
2022-08-26T19:32:02.119Z,48.01
2022-08-26T19:34:29.523Z,47.86
2022-08-26T19:36:58.367Z,47.99
2022-08-26T19:39:26.545Z,47.90
2022-08-26T19:41:53.874Z,48.00
2022-08-26T19:44:41.483Z,48.05
2022-08-26T19:47:10.027Z,48.25
2022-08-26T19:49:37.666Z,48.22
2022-08-26T19:52:05.720Z,48.03
2022-08-26T19:54:33.255Z,48.16
2022-08-26T19:57:00.225Z,47.78
2022-08-26T19:59:27.131Z,47.20
2022-08-26T20:02:01.200Z,46.94
2022-08-26T20:04:31.708Z,46.88
2022-08-26T20:07:00.903Z,46.83
2022-08-26T20:09:29.976Z,47.27
2022-08-26T20:11:57.408Z,47.32
2022-08-26T20:14:26.002Z,47.44
2022-08-26T20:16:53.032Z,47.19
2022-08-26T20:19:38.546Z,47.23
2022-08-26T20:22:06.432Z,47.15
2022-08-26T20:24:35.156Z,47.06
2022-08-26T20:27:06.839Z,47.11
2022-08-26T20:29:34.892Z,47.33
2022-08-26T20:32:02.796Z,47.02
2022-08-26T20:34:30.180Z,46.75
2022-08-26T20:36:57.046Z,46.48
2022-08-26T20:39:23.936Z,46.29
2022-08-26T20:41:51.173Z,45.92
2022-08-26T20:44:18.069Z,45.48
2022-08-26T20:46:45.456Z,45.19
2022-08-26T20:49:13.454Z,45.14
2022-08-26T20:51:42.410Z,45.22
2022-08-26T20:54:11.704Z,45.13
2022-08-26T20:56:39.393Z,44.75
2022-08-26T20:59:07.658Z,44.53
2022-08-26T21:01:36.870Z,44.65
2022-08-26T21:04:12.184Z,44.30
2022-08-26T21:06:39.056Z,44.13
2022-08-26T21:09:10.925Z,43.98
2022-08-26T21:11:38.606Z,43.81
2022-08-26T21:14:07.074Z,43.75
2022-08-26T21:16:44.828Z,43.71
2022-08-26T21:19:14.597Z,43.84
2022-08-26T21:21:41.998Z,43.59
2022-08-26T21:24:09.393Z,43.58
2022-08-26T21:26:36.667Z,43.49
2022-08-26T21:29:04.295Z,43.72
2022-08-26T21:31:32.125Z,43.90
2022-08-26T21:33:59.805Z,43.86
2022-08-26T21:36:26.860Z,43.81
2022-08-26T21:38:59.077Z,43.93
2022-08-26T21:41:27.289Z,43.98
2022-08-26T21:43:59.219Z,43.93
2022-08-26T21:46:29.165Z,44.09
2022-08-26T21:49:01.564Z,44.35
2022-08-26T21:51:34.480Z,44.52
2022-08-26T21:54:03.684Z,44.71
2022-08-26T21:56:34.644Z,44.67
2022-08-26T21:59:02.156Z,45.06
2022-08-26T22:01:34.678Z,45.28
2022-08-26T22:04:03.984Z,45.38
2022-08-26T22:06:33.736Z,45.88
2022-08-26T22:09:00.936Z,46.05
2022-08-26T22:11:28.678Z,46.34
2022-08-26T22:13:56.972Z,46.35
2022-08-26T22:16:26.820Z,46.40
2022-08-26T22:18:54.871Z,46.96
2022-08-26T22:21:24.393Z,47.43
2022-08-26T22:23:51.497Z,47.58
2022-08-26T22:26:25.451Z,47.81
2022-08-26T22:28:59.156Z,47.62
2022-08-26T22:31:37.960Z,47.84
2022-08-26T22:34:10.226Z,48.07
2022-08-26T22:36:43.058Z,48.24
2022-08-26T22:39:12.929Z,48.41
2022-08-26T22:41:40.292Z,48.41
2022-08-26T22:44:07.591Z,48.61
2022-08-26T22:46:36.763Z,48.24
2022-08-26T22:49:05.077Z,48.25
2022-08-26T22:51:32.209Z,48.30
2022-08-26T22:53:59.499Z,48.50
2022-08-26T22:56:26.422Z,48.11
2022-08-26T22:58:53.457Z,48.11
2022-08-26T23:01:20.530Z,48.06
2022-08-26T23:03:47.569Z,48.05
2022-08-26T23:06:14.406Z,48.31
2022-08-26T23:08:42.064Z,48.55
2022-08-26T23:11:10.860Z,48.66
2022-08-26T23:13:38.752Z,48.41
2022-08-26T23:16:09.265Z,48.77
2022-08-26T23:18:36.383Z,48.78
2022-08-26T23:21:03.467Z,49.08
2022-08-26T23:23:31.193Z,49.32
2022-08-26T23:25:58.491Z,49.18
2022-08-26T23:28:25.861Z,49.41
2022-08-26T23:30:53.741Z,49.89
2022-08-26T23:33:21.384Z,50.34
2022-08-26T23:35:48.234Z,50.43
2022-08-26T23:38:16.303Z,50.47
2022-08-26T23:40:43.368Z,51.01
2022-08-26T23:43:11.648Z,50.88
2022-08-26T23:45:38.947Z,50.90
2022-08-26T23:48:06.823Z,51.34
2022-08-26T23:50:52.582Z,51.79
2022-08-26T23:53:22.327Z,52.63
2022-08-26T23:55:51.983Z,52.79
2022-08-26T23:58:20.974Z,52.65
